Time;durP1;ratioP1;P1;durP2;ratioP2;P2;SDS_P1;SDS_P2;PMS_P1;PMS_P2;Temp;Humidity;BMP_temperature;BMP_pressure;BME280_temperature;BME280_humidity;BME280_pressure;Samples;Min_cycle;Max_cycle;Signal;HPM_P1;HPM_P2
2021/05/08 00:00:25;;;;;;;0.40;0.20;;;;;;;;;;5093333;28;20537;-73
2021/05/08 00:02:51;;;;;;;0.40;0.30;;;;;;;;;;5093198;28;20381;-72
2021/05/08 00:05:17;;;;;;;0.40;0.20;;;;;;;;;;5092641;28;20423;-72
2021/05/08 00:07:44;;;;;;;0.40;0.20;;;;;;;;;;5093198;28;20405;-72
2021/05/08 00:10:17;;;;;;;0.40;0.20;;;;;;;;;;5092854;28;20366;-73
2021/05/08 00:12:43;;;;;;;0.40;0.20;;;;;;;;;;5093163;28;20389;-73
2021/05/08 00:15:10;;;;;;;0.40;0.20;;;;;;;;;;5092044;28;20889;-72
2021/05/08 00:17:37;;;;;;;0.40;0.20;;;5.40;99.90;;;;;;5093001;28;20374;-72
2021/05/08 00:20:06;;;;;;;0.40;0.20;;;;;;;;;;5092353;28;20441;-73
2021/05/08 00:22:33;;;;;;;0.40;0.20;;;;;;;;;;5092631;28;20381;-72
2021/05/08 00:24:58;;;;;;;0.40;0.20;;;;;;;;;;5092482;28;20373;-73
2021/05/08 00:27:24;;;;;;;0.40;0.20;;;5.50;99.90;;;;;;5092490;28;20382;-72
2021/05/08 00:29:50;;;;;;;0.40;0.20;;;;;;;;;;5092812;28;20429;-72
2021/05/08 00:32:16;;;;;;;0.40;0.20;;;;;;;;;;5091803;28;20835;-72
2021/05/08 00:34:42;;;;;;;0.40;0.20;;;;;;;;;;5092668;28;20369;-72
2021/05/08 00:37:09;;;;;;;0.40;0.20;;;;;;;;;;5073813;28;20374;-73
2021/05/08 00:39:35;;;;;;;0.40;0.20;;;;;;;;;;5074510;28;20954;-72
2021/05/08 00:42:01;;;;;;;0.40;0.20;;;;;;;;;;5073955;28;20366;-73
2021/05/08 00:44:27;;;;;;;0.40;0.20;;;;;;;;;;5092598;28;20374;-72
2021/05/08 00:46:53;;;;;;;0.40;0.40;;;;;;;;;;5092403;28;20488;-72
2021/05/08 00:49:21;;;;;;;0.40;0.20;;;;;;;;;;5091429;28;21038;-72
2021/05/08 00:51:47;;;;;;;0.40;0.20;;;;;;;;;;5092375;28;20409;-72
2021/05/08 00:54:13;;;;;;;0.40;0.20;;;;;;;;;;5091838;28;20714;-72
2021/05/08 00:56:39;;;;;;;0.40;0.20;;;;;;;;;;5091963;28;20374;-72
2021/05/08 00:59:05;;;;;;;0.40;0.20;;;;;;;;;;5091566;28;20413;-72
2021/05/08 01:01:31;;;;;;;0.40;0.20;;;;;;;;;;5092181;28;20511;-71
2021/05/08 01:03:57;;;;;;;0.40;0.20;;;;;;;;;;5092045;28;20708;-72
2021/05/08 01:06:23;;;;;;;0.40;0.20;;;5.00;99.90;;;;;;5091513;28;20374;-71
2021/05/08 01:08:49;;;;;;;0.40;0.20;;;;;;;;;;5092091;28;20378;-72
2021/05/08 01:11:16;;;;;;;0.40;0.20;;;;;;;;;;5091401;28;20373;-72
2021/05/08 01:13:42;;;;;;;0.40;0.20;;;;;;;;;;5091986;28;20413;-72
2021/05/08 01:16:08;;;;;;;0.40;0.20;;;;;;;;;;5090888;28;20419;-72
2021/05/08 01:18:34;;;;;;;0.40;0.20;;;;;;;;;;5091898;28;20385;-72
2021/05/08 01:21:01;;;;;;;0.40;0.20;;;4.80;99.90;;;;;;5091964;28;20404;-73
2021/05/08 01:23:27;;;;;;;0.40;0.20;;;;;;;;;;5091577;28;20397;-72
2021/05/08 01:25:52;;;;;;;0.40;0.30;;;4.70;99.90;;;;;;5091978;28;20504;-72
2021/05/08 01:28:18;;;;;;;0.40;0.20;;;;;;;;;;5091107;28;20453;-72
2021/05/08 01:30:45;;;;;;;0.40;0.20;;;;;;;;;;5090815;28;20719;-73
2021/05/08 01:33:12;;;;;;;0.40;0.20;;;;;;;;;;5091012;28;20373;-72
2021/05/08 01:35:37;;;;;;;0.40;0.20;;;;;;;;;;5091891;28;20370;-72
2021/05/08 01:38:04;;;;;;;0.40;0.20;;;;;;;;;;5090829;28;20370;-73
2021/05/08 01:40:32;;;;;;;0.40;0.20;;;4.60;99.90;;;;;;5091526;28;20395;-72
2021/05/08 01:42:59;;;;;;;0.40;0.20;;;;;;;;;;5091349;28;20385;-73
2021/05/08 01:45:25;;;;;;;0.40;0.20;;;;;;;;;;5090756;28;20805;-72
2021/05/08 01:47:52;;;;;;;0.40;0.20;;;5.00;99.90;;;;;;5091351;28;20413;-72
2021/05/08 01:50:20;;;;;;;0.40;0.20;;;;;;;;;;5090743;28;20874;-72
2021/05/08 01:52:46;;;;;;;0.40;0.20;;;;;;;;;;5090891;28;20918;-72
2021/05/08 01:55:13;;;;;;;0.40;0.20;;;;;;;;;;5090562;28;20370;-73
2021/05/08 01:57:45;;;;;;;0.40;0.20;;;4.70;99.90;;;;;;5090809;28;20826;-72
2021/05/08 02:00:13;;;;;;;0.40;0.20;;;;;;;;;;5090496;28;20428;-72
2021/05/08 02:02:39;;;;;;;0.40;0.20;;;;;;;;;;5090899;28;20377;-72
2021/05/08 02:05:07;;;;;;;0.40;0.20;;;;;;;;;;5090494;28;20374;-73
2021/05/08 02:07:33;;;;;;;0.40;0.20;;;;;;;;;;5091018;28;20461;-72
2021/05/08 02:09:59;;;;;;;0.40;0.20;;;;;;;;;;5072861;28;20382;-71
2021/05/08 02:12:33;;;;;;;0.40;0.20;;;4.40;99.90;;;;;;5090078;28;20722;-72
2021/05/08 02:14:59;;;;;;;0.40;0.20;;;;;;;;;;5090911;28;20476;-71
2021/05/08 02:17:25;;;;;;;0.40;0.20;;;;;;;;;;5072043;28;21190;-71
2021/05/08 02:19:51;;;;;;;0.40;0.20;;;;;;;;;;5090704;28;20909;-71
2021/05/08 02:22:18;;;;;;;0.40;0.20;;;;;;;;;;5090128;28;20383;-72
2021/05/08 02:24:44;;;;;;;0.70;0.50;;;;;;;;;;5090524;28;20483;-72
2021/05/08 02:27:10;;;;;;;0.40;0.20;;;;;;;;;;5089782;28;20716;-72
2021/05/08 02:29:37;;;;;;;0.40;0.20;;;;;;;;;;5090670;28;20795;-72
2021/05/08 02:32:03;;;;;;;0.40;0.20;;;;;;;;;;5090663;28;20449;-72
2021/05/08 02:34:29;;;;;;;0.40;0.20;;;;;;;;;;5089773;28;20362;-72
2021/05/08 02:36:55;;;;;;;0.40;0.20;;;;;;;;;;5090505;28;20363;-73
2021/05/08 02:39:21;;;;;;;0.40;0.20;;;4.20;99.90;;;;;;5090116;28;20786;-72
2021/05/08 02:41:47;;;;;;;0.40;0.20;;;;;;;;;;5090495;28;20386;-72
2021/05/08 02:44:13;;;;;;;0.40;0.20;;;;;;;;;;5094279;28;20373;-72
2021/05/08 02:46:39;;;;;;;0.40;0.20;;;;;;;;;;5076018;28;20477;-73
2021/05/08 02:49:05;;;;;;;0.40;0.20;;;;;;;;;;5094650;28;20810;-72
2021/05/08 02:51:31;;;;;;;0.40;0.20;;;;;;;;;;5093871;28;20427;-74
2021/05/08 02:53:57;;;;;;;0.40;0.20;;;;;;;;;;5076459;28;20465;-74
2021/05/08 02:56:23;;;;;;;0.40;0.20;;;;;;;;;;5094177;28;20798;-74
2021/05/08 02:58:49;;;;;;;0.40;0.20;;;;;;;;;;5094267;28;20429;-71
2021/05/08 03:01:15;;;;;;;0.40;0.20;;;;;;;;;;5093597;28;20441;-71
2021/05/08 03:03:41;;;;;;;0.40;0.20;;;;;;;;;;5094618;28;20370;-71
2021/05/08 03:06:07;;;;;;;0.40;0.20;;;;;;;;;;5094270;28;20374;-71
2021/05/08 03:08:33;;;;;;;0.40;0.20;;;;;;;;;;5094125;28;20734;-71
2021/05/08 03:10:59;;;;;;;0.40;0.20;;;;;;;;;;5094179;28;20358;-71
2021/05/08 03:13:25;;;;;;;0.40;0.20;;;;;;;;;;5075427;28;20382;-74
2021/05/08 03:15:51;;;;;;;0.40;0.20;;;;;;;;;;5094116;28;20416;-74
2021/05/08 03:18:16;;;;;;;0.40;0.20;;;3.80;99.90;;;;;;5093332;28;20377;-74
2021/05/08 03:20:42;;;;;;;0.40;0.20;;;;;;;;;;5094467;28;20426;-74
2021/05/08 03:23:09;;;;;;;0.90;0.50;;;;;;;;;;5093855;28;20458;-76
2021/05/08 03:25:34;;;;;;;0.40;0.20;;;4.20;99.90;;;;;;5093998;28;20366;-72
2021/05/08 03:28:00;;;;;;;0.40;0.20;;;;;;;;;;5093995;28;20385;-72
2021/05/08 03:30:26;;;;;;;0.40;0.20;;;;;;;;;;5093109;28;20373;-72
2021/05/08 03:32:52;;;;;;;0.40;0.20;;;;;;;;;;5093344;28;20381;-71
2021/05/08 03:35:18;;;;;;;0.40;0.20;;;;;;;;;;5092896;28;20738;-72
2021/05/08 03:37:44;;;;;;;0.40;0.20;;;;;;;;;;5093449;28;20377;-72
2021/05/08 03:40:10;;;;;;;0.40;0.20;;;;;;;;;;5093153;28;20408;-73
2021/05/08 03:42:36;;;;;;;0.40;0.20;;;4.10;99.90;;;;;;5093434;28;20366;-72
2021/05/08 03:45:02;;;;;;;0.40;0.20;;;;;;;;;;5093599;28;20409;-72
2021/05/08 03:47:28;;;;;;;0.40;0.20;;;;;;;;;;5092894;28;20445;-72
2021/05/08 03:49:55;;;;;;;0.40;0.20;;;;;;;;;;5093283;28;20466;-72
2021/05/08 03:52:21;;;;;;;0.40;0.20;;;;;;;;;;5092795;28;20393;-73
2021/05/08 03:54:47;;;;;;;0.40;0.20;;;;;;;;;;5093330;28;20358;-71
2021/05/08 03:57:13;;;;;;;0.40;0.20;;;;;;;;;;5093008;28;20405;-72
2021/05/08 03:59:39;;;;;;;0.40;0.20;;;;;;;;;;5093274;28;20425;-72
2021/05/08 04:02:05;;;;;;;0.40;0.20;;;;;;;;;;5093946;28;20389;-72
2021/05/08 04:04:31;;;;;;;0.40;0.20;;;;;;;;;;5093413;28;20772;-72
2021/05/08 04:06:56;;;;;;;0.40;0.20;;;4.00;99.90;;;;;;5093790;28;20366;-72
2021/05/08 04:09:22;;;;;;;0.40;0.20;;;;;;;;;;5074567;28;20389;-72
2021/05/08 04:11:48;;;;;;;0.40;0.20;;;;;;;;;;5075440;28;20393;-72
2021/05/08 04:14:14;;;;;;;0.40;0.20;;;;;;;;;;5092915;28;20370;-73
2021/05/08 04:16:40;;;;;;;0.40;0.20;;;;;;;;;;5093498;28;20826;-72
2021/05/08 04:19:06;;;;;;;0.40;0.20;;;;;;;;;;5093270;28;20421;-72
2021/05/08 04:21:33;;;;;;;0.40;0.20;;;;;;;;;;5092881;28;20936;-72
2021/05/08 04:23:59;;;;;;;0.40;0.20;;;;;;;;;;5093444;28;20374;-72
2021/05/08 04:26:25;;;;;;;0.40;0.20;;;;;;;;;;5092853;28;20381;-73
2021/05/08 04:28:51;;;;;;;0.40;0.20;;;;;;;;;;5093269;28;20439;-72
2021/05/08 04:31:17;;;;;;;0.40;0.20;;;;;;;;;;5092810;28;20400;-72
2021/05/08 04:33:43;;;;;;;0.40;0.20;;;;;;;;;;5093048;28;20373;-72
2021/05/08 04:36:09;;;;;;;0.40;0.20;;;;;;;;;;5075177;28;20408;-72
2021/05/08 04:38:38;;;;;;;0.40;0.20;;;;;;;;;;5092457;28;20413;-72
2021/05/08 04:41:04;;;;;;;0.40;0.20;;;;;;;;;;5093216;28;20382;-71
2021/05/08 04:43:30;;;;;;;0.40;0.20;;;;;;;;;;5092311;28;20385;-72
2021/05/08 04:45:57;;;;;;;0.40;0.20;;;;;;;;;;5092828;28;20777;-72
2021/05/08 04:48:26;;;;;;;0.40;0.20;;;;;;;;;;5092265;28;20417;-72
2021/05/08 04:50:53;;;;;;;0.40;0.20;;;;;;;;;;5093112;28;20435;-72
2021/05/08 04:53:20;;;;;;;0.40;0.20;;;;;;;;;;5092206;28;20374;-72
2021/05/08 04:55:46;;;;;;;0.40;0.20;;;;;;;;;;5092825;28;20378;-73
2021/05/08 04:58:13;;;;;;;0.40;0.20;;;;;;;;;;5092725;28;20387;-73
2021/05/08 05:00:39;;;;;;;0.40;0.20;;;;;;;;;;5092058;28;20398;-72
2021/05/08 05:03:04;;;;;;;0.40;0.20;;;4.50;99.90;;;;;;5092655;28;20443;-72
2021/05/08 05:05:30;;;;;;;0.40;0.20;;;;;;;;;;5091270;28;20382;-72
2021/05/08 05:07:58;;;;;;;0.40;0.20;;;4.20;99.90;;;;;;5092367;28;20796;-71
2021/05/08 05:10:24;;;;;;;0.40;0.20;;;;;;;;;;5091987;28;20378;-72
2021/05/08 05:12:50;;;;;;;0.40;0.20;;;4.30;99.90;;;;;;5092611;28;20370;-72
2021/05/08 05:15:17;;;;;;;0.40;0.20;;;;;;;;;;5107630;28;20464;-79
2021/05/08 05:17:43;;;;;;;0.40;0.20;;;;;;;;;;5092459;28;20431;-72
2021/05/08 05:20:09;;;;;;;0.40;0.20;;;;;;;;;;5092364;28;20418;-72
2021/05/08 05:22:35;;;;;;;0.40;0.20;;;;;;;;;;5091777;28;20440;-72
2021/05/08 05:25:03;;;;;;;0.40;0.20;;;;;;;;;;5092302;28;20431;-73
2021/05/08 05:27:29;;;;;;;0.40;0.20;;;;;;;;;;5091648;28;20377;-72
2021/05/08 05:29:55;;;;;;;0.40;0.20;;;;;;;;;;5092114;28;20507;-72
2021/05/08 05:32:21;;;;;;;0.40;0.20;;;;;;;;;;5073311;28;20416;-73
2021/05/08 05:34:46;;;;;;;0.40;0.20;;;5.70;99.90;;;;;;5074166;28;20390;-72
2021/05/08 05:37:12;;;;;;;0.40;0.20;;;5.40;99.90;;;;;;5091822;28;20381;-72
2021/05/08 05:39:39;;;;;;;0.40;0.20;;;;;;;;;;5091275;28;20433;-72
2021/05/08 05:42:05;;;;;;;0.40;0.20;;;;;;;;;;5091697;28;20382;-72
2021/05/08 05:44:31;;;;;;;0.40;0.20;;;;;;;;;;5091029;28;20469;-72
2021/05/08 05:46:56;;;;;;;0.40;0.20;;;5.90;99.90;;;;;;5091907;28;20417;-72
2021/05/08 05:49:22;;;;;;;0.40;0.20;;;;;;;;;;5090787;28;20874;-72
2021/05/08 05:51:48;;;;;;;0.40;0.20;;;;;;;;;;5091630;28;20378;-72
2021/05/08 05:54:14;;;;;;;0.40;0.20;;;;;;;;;;5091670;28;20385;-72
2021/05/08 05:56:40;;;;;;;0.40;0.20;;;6.10;99.90;;;;;;5091010;28;20719;-72
2021/05/08 05:59:06;;;;;;;0.40;0.20;;;;;;;;;;5091445;28;20426;-72
2021/05/08 06:01:32;;;;;;;0.40;0.20;;;6.60;99.90;;;;;;5090639;28;20738;-72
2021/05/08 06:03:58;;;;;;;0.40;0.20;;;;;;;;;;5091507;28;20423;-73
2021/05/08 06:06:24;;;;;;;0.40;0.20;;;;;;;;;;5090940;28;20369;-72
2021/05/08 06:08:50;;;;;;;0.40;0.20;;;;;;;;;;5091204;28;20421;-72
2021/05/08 06:11:16;;;;;;;0.40;0.20;;;6.80;99.90;;;;;;5091327;28;20373;-72
2021/05/08 06:13:42;;;;;;;0.40;0.20;;;;;;;;;;5090517;28;20374;-72
2021/05/08 06:16:07;;;;;;;0.40;0.20;;;6.80;99.90;;;;;;5091092;28;20362;-72
2021/05/08 06:18:36;;;;;;;0.40;0.20;;;7.00;99.90;;;;;;5090786;28;20451;-72
2021/05/08 06:21:02;;;;;;;0.40;0.20;;;;;;;;;;5091393;28;20821;-72
2021/05/08 06:23:28;;;;;;;0.40;0.20;;;;;;;;;;5090596;28;20473;-72
2021/05/08 06:25:54;;;;;;;0.40;0.20;;;;;;;;;;5091168;28;20788;-72
2021/05/08 06:28:21;;;;;;;0.40;0.20;;;;;;;;;;5090415;28;20884;-76
2021/05/08 06:30:46;;;;;;;0.40;0.20;;;7.80;99.90;;;;;;5091034;28;20760;-72
2021/05/08 06:33:12;;;;;;;0.40;0.20;;;;;;;;;;5091233;28;20385;-71
2021/05/08 06:35:38;;;;;;;0.40;0.20;;;;;;;;;;5090475;28;20370;-74
2021/05/08 06:38:06;;;;;;;0.40;0.20;;;;;;;;;;5091225;28;20699;-71
2021/05/08 06:40:32;;;;;;;0.40;0.20;;;;;;;;;;5090295;28;20500;-71
2021/05/08 06:42:57;;;;;;;0.40;0.20;;;8.10;99.90;;;;;;5091044;28;20362;-72
2021/05/08 06:45:23;;;;;;;0.40;0.20;;;8.10;99.90;;;;;;5090335;28;20401;-73
2021/05/08 06:47:51;;;;;;;0.40;0.20;;;;;;;;;;5073219;28;20423;-72
2021/05/08 06:50:17;;;;;;;0.40;0.20;;;8.20;99.90;;;;;;5091018;28;20470;-72
2021/05/08 06:52:43;;;;;;;0.40;0.20;;;;;;;;;;5090454;28;20858;-72
2021/05/08 06:55:09;;;;;;;0.40;0.20;;;;;;;;;;5090943;28;20461;-72
2021/05/08 06:57:35;;;;;;;0.40;0.20;;;9.20;99.90;;;;;;5090370;28;20366;-72
2021/05/08 07:00:01;;;;;;;0.40;0.20;;;8.70;99.90;;;;;;5090802;28;20927;-72
2021/05/08 07:02:27;;;;;;;0.40;0.20;;;;;;;;;;5090337;28;20378;-73
2021/05/08 07:04:53;;;;;;;4.50;0.90;;;;;;;;;;5090754;28;20419;-72
2021/05/08 07:07:19;;;;;;;0.40;0.20;;;;;;;;;;5090527;28;20400;-74
2021/05/08 07:09:45;;;;;;;0.40;0.20;;;;;;;;;;5072116;28;20382;-75
2021/05/08 07:12:11;;;;;;;0.40;0.20;;;;;;;;;;5090870;28;20378;-73
2021/05/08 07:14:37;;;;;;;0.40;0.20;;;9.10;99.90;;;;;;5090289;28;20409;-74
2021/05/08 07:17:03;;;;;;;0.40;0.20;;;;;;;;;;5091074;28;20440;-73
2021/05/08 07:19:29;;;;;;;0.40;0.20;;;;;;;;;;5089963;28;20398;-73
2021/05/08 07:21:55;;;;;;;0.40;0.20;;;9.50;99.90;;;;;;5090722;28;20386;-73
2021/05/08 07:24:22;;;;;;;0.40;0.20;;;9.30;99.90;;;;;;5090663;28;20382;-74
2021/05/08 07:26:48;;;;;;;0.40;0.20;;;9.40;99.90;;;;;;5088192;28;20853;-74
2021/05/08 07:29:16;;;;;;;0.40;0.20;;;;;;;;;;5103744;28;20384;-74
2021/05/08 07:31:41;;;;;;;0.40;0.20;;;9.80;99.90;;;;;;5114141;28;20403;-74
2021/05/08 07:34:07;;;;;;;0.40;0.20;;;9.70;99.90;;;;;;5114593;28;20377;-74
2021/05/08 07:36:33;;;;;;;0.40;0.20;;;;;;;;;;5113877;28;20460;-73
2021/05/08 07:38:59;;;;;;;0.40;0.20;;;;;;;;;;5114681;28;20426;-73
2021/05/08 07:41:26;;;;;;;0.40;0.20;;;;;;;;;;5096632;28;20372;-76
2021/05/08 07:43:52;;;;;;;0.40;0.20;;;;;;;;;;5114924;28;20374;-74
2021/05/08 07:46:18;;;;;;;0.40;0.20;;;;;;;;;;5096363;28;20872;-73
2021/05/08 07:48:44;;;;;;;0.40;0.20;;;;;;;;;;5114058;28;20373;-74
2021/05/08 07:51:10;;;;;;;0.40;0.20;;;;;;;;;;5114357;28;20379;-74
2021/05/08 07:53:36;;;;;;;0.40;0.20;;;;;;;;;;5113839;28;20503;-75
2021/05/08 07:56:02;;;;;;;0.40;0.20;;;;;;;;;;5114281;28;20717;-75
2021/05/08 07:58:28;;;;;;;0.40;0.20;;;;;;;;;;5096403;28;20866;-74
2021/05/08 08:00:54;;;;;;;0.40;0.20;;;;;;;;;;5093759;28;20405;-74
2021/05/08 08:03:20;;;;;;;0.40;0.20;;;11.00;99.90;;;;;;5093909;28;20381;-74
2021/05/08 08:05:45;;;;;;;0.40;0.30;;;10.60;99.90;;;;;;5093110;28;20726;-71
2021/05/08 08:08:11;;;;;;;0.40;0.20;;;10.90;99.90;;;;;;5093780;28;20386;-70
2021/05/08 08:10:37;;;;;;;0.40;0.20;;;;;;;;;;5092867;28;20374;-71
2021/05/08 08:13:03;;;;;;;0.40;0.20;;;10.70;99.90;;;;;;5093735;28;20374;-71
2021/05/08 08:15:29;;;;;;;0.40;0.20;;;11.30;99.90;;;;;;5092668;28;20404;-72
2021/05/08 08:17:55;;;;;;;0.40;0.20;;;;;;;;;;5093399;28;20381;-71
2021/05/08 08:20:21;;;;;;;0.40;0.20;;;;;;;;;;5093709;28;20492;-73
2021/05/08 08:22:47;;;;;;;0.40;0.20;;;;;;;;;;5092781;28;20394;-72
2021/05/08 08:25:14;;;;;;;0.40;0.20;;;11.40;99.90;;;;;;5093566;28;20370;-73
2021/05/08 08:27:40;;;;;;;0.40;0.20;;;;;;;;;;5092547;28;20413;-73
2021/05/08 08:30:08;;;;;;;0.40;0.20;;;;;;;;;;5093365;28;20730;-70
2021/05/08 08:32:33;;;;;;;0.40;0.20;;;12.30;99.90;;;;;;5092362;28;20374;-71
2021/05/08 08:34:59;;;;;;;0.40;0.20;;;12.20;99.90;;;;;;5093181;28;20382;-71
2021/05/08 08:37:25;;;;;;;0.80;0.70;;;;;;;;;;5093052;28;20401;-75
2021/05/08 08:39:51;;;;;;;0.40;0.20;;;12.60;99.90;;;;;;5074091;28;20894;-75
2021/05/08 08:42:18;;;;;;;0.40;0.20;;;;;;;;;;5091855;28;20385;-76
2021/05/08 08:44:43;;;;;;;0.40;0.20;;;12.20;99.90;;;;;;5091693;28;20398;-75
2021/05/08 08:47:30;;;;;;;0.40;0.30;;;13.50;99.90;;;;;;5092938;28;20427;-75
2021/05/08 08:49:58;;;;;;;0.40;0.20;;;;;;;;;;5092791;28;20398;-76
2021/05/08 08:52:24;;;;;;;0.40;0.20;;;;;;;;;;5092864;28;20684;-76
2021/05/08 08:54:50;;;;;;;0.40;0.20;;;13.00;99.90;;;;;;5092613;28;20378;-74
2021/05/08 08:57:18;;;;;;;0.40;0.30;;;12.40;99.90;;;;;;5092139;28;20521;-74
2021/05/08 08:59:45;;;;;;;1.00;0.50;;;;;;;;;;5091661;28;20398;-75
2021/05/08 09:02:10;;;;;;;0.40;0.20;;;;;;;;;;5092601;28;20374;-76
2021/05/08 09:04:38;;;;;;;0.40;0.20;;;12.70;99.90;;;;;;5091764;28;20381;-75
2021/05/08 09:07:05;;;;;;;0.50;0.40;;;;;;;;;;5092310;28;20431;-75
2021/05/08 09:09:31;;;;;;;0.40;0.20;;;;;;;;;;5091886;28;20370;-77
2021/05/08 09:11:56;;;;;;;0.40;0.20;;;13.50;99.90;;;;;;5092513;28;20435;-76
2021/05/08 09:14:26;;;;;;;0.40;0.20;;;13.40;99.90;;;;;;5092616;28;20847;-75
2021/05/08 09:17:13;;;;;;;0.40;0.20;;;13.40;99.90;;;;;;5091864;28;20377;-79
2021/05/08 09:19:44;;;;;;;0.40;0.20;;;13.80;99.90;;;;;;5091515;28;20810;-77
2021/05/08 09:22:24;;;;;;;0.40;0.20;;;;;;;;;;5092257;28;20382;-77
2021/05/08 09:25:04;;;;;;;0.40;0.20;;;13.90;99.90;;;;;;5091760;28;20382;-75
2021/05/08 09:27:44;;;;;;;0.40;0.20;;;;;;;;;;5092206;28;20772;-75
2021/05/08 09:30:42;;;;;;;0.40;0.20;;;14.10;99.90;;;;;;5092106;28;20382;-75
2021/05/08 09:33:08;;;;;;;0.40;0.20;;;14.40;99.90;;;;;;5091832;28;20401;-76
2021/05/08 09:35:35;;;;;;;0.40;0.20;;;;;;;;;;5091319;28;20370;-76
2021/05/08 09:38:16;;;;;;;0.40;0.20;;;;;;;;;;5091911;28;20437;-75
2021/05/08 09:40:46;;;;;;;0.40;0.20;;;;;;;;;;5091398;28;20402;-75
2021/05/08 09:43:15;;;;;;;0.40;0.20;;;14.10;99.10;;;;;;5092138;28;20800;-77
2021/05/08 09:45:42;;;;;;;0.40;0.20;;;14.50;99.00;;;;;;5095184;28;20801;-76
2021/05/08 09:48:33;;;;;;;0.40;0.20;;;;;;;;;;5106328;28;20705;-76
2021/05/08 09:51:26;;;;;;;0.40;0.20;;;14.70;98.80;;;;;;5063705;28;20794;-75
2021/05/08 09:54:02;;;;;;;0.40;0.20;;;14.40;99.90;;;;;;5093151;28;20646;-75
2021/05/08 09:56:39;;;;;;;0.40;0.20;;;15.10;99.90;;;;;;5096266;28;20376;-75
2021/05/08 09:59:27;;;;;;;0.50;0.50;;;14.60;94.40;;;;;;5111363;28;20895;-74
2021/05/08 10:02:02;;;;;;;0.40;0.20;;;;;;;;;;5107901;28;20392;-72
2021/05/08 10:04:29;;;;;;;0.40;0.20;;;;;;;;;;5111370;28;20379;-74
2021/05/08 10:07:21;;;;;;;0.40;0.20;;;15.80;96.60;;;;;;5091866;28;20366;-75
2021/05/08 10:09:47;;;;;;;0.70;0.40;;;;;;;;;;5090963;28;20390;-75
2021/05/08 10:12:15;;;;;;;0.40;0.20;;;16.10;94.60;;;;;;5091100;28;20475;-75
2021/05/08 10:14:43;;;;;;;0.40;0.20;;;16.60;99.20;;;;;;5090862;28;20385;-76
2021/05/08 10:17:10;;;;;;;0.40;0.20;;;;;;;;;;5103399;28;20842;-75
2021/05/08 10:19:38;;;;;;;0.40;0.30;;;16.10;94.50;;;;;;5110763;28;20408;-75
2021/05/08 10:22:07;;;;;;;0.40;0.20;;;;;;;;;;5111551;28;20392;-75
2021/05/08 10:24:35;;;;;;;0.40;0.20;;;17.00;98.80;;;;;;5111624;28;20805;-74
2021/05/08 10:27:01;;;;;;;0.40;0.27;;;16.80;95.50;;;;;;5111763;28;20468;-75
2021/05/08 10:29:29;;;;;;;0.40;0.20;;;16.20;96.60;;;;;;5111604;28;20380;-74
2021/05/08 10:31:58;;;;;;;0.40;0.20;;;16.80;96.50;;;;;;5110981;28;20697;-74
2021/05/08 10:34:33;;;;;;;0.40;0.28;;;;;;;;;;5111420;28;20380;-75
2021/05/08 10:37:10;;;;;;;0.40;0.20;;;16.10;92.20;;;;;;5110980;28;20385;-73
2021/05/08 10:40:00;;;;;;;0.40;0.20;;;16.70;90.20;;;;;;5110533;28;20491;-75
2021/05/08 10:42:34;;;;;;;0.40;0.20;;;17.60;93.70;;;;;;5111398;28;20445;-75
2021/05/08 10:45:02;;;;;;;0.40;0.20;;;17.40;97.00;;;;;;5110862;28;20401;-74
2021/05/08 10:47:53;;;;;;;0.40;0.20;;;17.50;90.10;;;;;;5111247;28;20392;-75
2021/05/08 10:50:28;;;;;;;0.40;0.20;;;18.70;92.80;;;;;;5111245;28;20484;-76
2021/05/08 10:53:09;;;;;;;0.40;0.20;;;;;;;;;;5110623;28;20741;-75
2021/05/08 10:55:58;;;;;;;0.40;0.20;;;17.90;92.80;;;;;;5111199;28;20372;-75
2021/05/08 10:58:24;;;;;;;0.40;0.20;;;17.40;96.90;;;;;;5097797;28;20392;-75
2021/05/08 11:00:50;;;;;;;0.40;0.20;;;17.40;93.10;;;;;;5110359;28;20396;-76
2021/05/08 11:03:16;;;;;;;0.40;0.30;;;;;;;;;;5111961;28;20392;-74
2021/05/08 11:06:06;;;;;;;0.40;0.20;;;;;;;;;;5114836;28;20380;-75
2021/05/08 11:08:35;;;;;;;0.40;0.20;;;;;;;;;;5115427;28;20391;-76
2021/05/08 11:11:02;;;;;;;0.40;0.20;;;;;;;;;;5114247;28;20928;-75
2021/05/08 11:13:50;;;;;;;0.40;0.30;;;17.90;92.20;;;;;;5114750;28;20759;-75
2021/05/08 11:16:17;;;;;;;0.50;0.50;;;;;;;;;;5114954;28;20377;-76
2021/05/08 11:18:48;;;;;;;0.40;0.20;;;18.40;86.20;;;;;;5113797;28;20457;-75
2021/05/08 11:21:13;;;;;;;0.40;0.20;;;18.80;81.10;;;;;;5114740;28;20400;-75
2021/05/08 11:23:43;;;;;;;0.40;0.40;;;;;;;;;;5114272;28;20887;-78
2021/05/08 11:29:05;;;;;;;0.40;0.20;;;19.40;73.10;;;;;;5113939;28;20400;-74
2021/05/08 11:31:43;;;;;;;0.40;0.20;;;19.70;75.40;;;;;;5114635;28;20461;-77
2021/05/08 11:34:10;;;;;;;0.40;0.20;;;19.00;66.50;;;;;;5115099;28;20367;-75
2021/05/08 11:36:47;;;;;;;0.40;0.20;;;19.00;68.80;;;;;;5114664;28;20395;-77
2021/05/08 11:39:18;;;;;;;0.40;0.20;;;19.10;72.80;;;;;;5107666;28;20765;-76
2021/05/08 11:41:45;;;;;;;0.40;0.20;;;;;;;;;;5105604;28;20384;-75
2021/05/08 11:44:27;;;;;;;0.40;0.20;;;;;;;;;;5076369;28;20548;-75
2021/05/08 11:46:53;;;;;;;0.40;0.20;;;;;;;;;;5051421;28;20835;-78
2021/05/08 11:49:23;;;;;;;0.40;0.20;;;19.10;63.10;;;;;;5052670;28;20401;-76
2021/05/08 11:51:49;;;;;;;0.40;0.20;;;19.00;74.90;;;;;;5052571;28;20389;-76
2021/05/08 11:54:15;;;;;;;0.40;0.30;;;;;;;;;;5053300;28;20435;-77
2021/05/08 11:56:41;;;;;;;0.40;0.30;;;;;;;;;;5051692;28;20424;-76
2021/05/08 11:59:07;;;;;;;0.40;0.30;;;19.30;65.00;;;;;;5052775;28;20389;-77
2021/05/08 12:01:34;;;;;;;0.40;0.20;;;19.20;65.80;;;;;;5053105;28;20389;-75
2021/05/08 12:04:02;;;;;;;0.40;0.28;;;19.80;65.30;;;;;;5052354;28;20648;-77
2021/05/08 12:06:29;;;;;;;0.40;0.20;;;19.90;72.60;;;;;;5053260;28;20734;-74
2021/05/08 12:08:56;;;;;;;0.40;0.20;;;19.40;64.20;;;;;;5052049;28;20389;-77
2021/05/08 12:11:22;;;;;;;0.40;0.20;;;19.50;66.20;;;;;;5053069;28;20382;-78
2021/05/08 12:13:48;;;;;;;0.40;0.20;;;;;;;;;;5052302;28;20392;-75
2021/05/08 12:16:14;;;;;;;0.40;0.20;;;;;;;;;;5053277;28;20370;-76
2021/05/08 12:18:41;;;;;;;0.40;0.20;;;;;;;;;;5052898;28;20366;-80
2021/05/08 12:21:08;;;;;;;0.40;0.20;;;;;;;;;;5052248;28;20808;-75
2021/05/08 12:23:36;;;;;;;0.40;0.20;;;;;;;;;;5051255;28;20377;-75
2021/05/08 12:26:16;;;;;;;0.40;0.30;;;19.50;76.10;;;;;;5050294;28;20380;-75
2021/05/08 12:29:02;;;;;;;0.40;0.20;;;19.70;80.80;;;;;;5049990;28;20451;-76
2021/05/08 12:31:34;;;;;;;0.40;0.20;;;19.50;69.80;;;;;;5049923;28;20402;-76
2021/05/08 12:34:12;;;;;;;0.40;0.20;;;;;;;;;;5051683;28;20618;-76
2021/05/08 12:36:40;;;;;;;0.40;0.20;;;;;;;;;;5052327;28;20719;-76
2021/05/08 12:39:23;;;;;;;0.40;0.20;;;;;;;;;;5052078;28;20369;-77
2021/05/08 12:41:56;;;;;;;0.40;0.20;;;19.80;74.60;;;;;;5048008;28;20776;-77
2021/05/08 12:44:31;;;;;;;0.40;0.20;;;;;;;;;;5051201;28;20742;-78
2021/05/08 12:46:59;;;;;;;0.40;0.20;;;;;;;;;;5109140;28;20928;-77
2021/05/08 12:49:26;;;;;;;0.40;0.20;;;;;;;;;;5079574;28;20392;-77
2021/05/08 12:51:53;;;;;;;0.40;0.20;;;19.70;81.70;;;;;;5102702;28;20383;-77
2021/05/08 12:54:25;;;;;;;0.40;0.20;;;;;;;;;;5099423;28;20435;-79
2021/05/08 12:56:52;;;;;;;0.40;0.25;;;;;;;;;;5099088;28;20416;-77
2021/05/08 12:59:25;;;;;;;0.40;0.20;;;;;;;;;;5100999;28;20871;-76
2021/05/08 13:01:53;;;;;;;0.40;0.20;;;;;;;;;;5101149;28;20382;-78
2021/05/08 13:04:19;;;;;;;0.40;0.20;;;20.80;81.80;;;;;;5112267;28;20874;-77
2021/05/08 13:06:45;;;;;;;0.40;0.20;;;;;;;;;;5091507;28;20461;-76
2021/05/08 13:09:22;;;;;;;0.40;0.20;;;;;;;;;;5102883;28;20552;-76
2021/05/08 13:11:48;;;;;;;0.40;0.20;;;20.80;64.10;;;;;;5096425;28;20371;-77
2021/05/08 13:14:17;;;;;;;0.40;0.20;;;20.80;76.30;;;;;;5109025;28;20400;-75
2021/05/08 13:16:43;;;;;;;0.40;0.20;;;21.50;70.10;;;;;;5093781;28;20382;-77
2021/05/08 13:19:10;;;;;;;0.40;0.20;;;;;;;;;;5108757;28;20463;-77
2021/05/08 13:21:36;;;;;;;0.40;0.20;;;;;;;;;;5112472;28;20377;-72
2021/05/08 13:24:03;;;;;;;0.40;0.20;;;21.40;69.10;;;;;;5112015;28;20372;-76
2021/05/08 13:26:29;;;;;;;0.40;0.20;;;22.10;69.40;;;;;;5111749;28;20508;-75
2021/05/08 13:28:55;;;;;;;0.40;0.20;;;;;;;;;;5111988;28;20380;-74
2021/05/08 13:31:21;;;;;;;0.40;0.20;;;;;;;;;;5112229;28;20376;-76
2021/05/08 13:33:48;;;;;;;0.40;0.20;;;21.80;70.50;;;;;;5112001;28;20725;-73
2021/05/08 13:36:20;;;;;;;0.40;0.20;;;21.80;70.10;;;;;;5112413;28;20372;-77
2021/05/08 13:38:47;;;;;;;0.40;0.20;;;21.80;75.80;;;;;;5111513;28;20857;-74
2021/05/08 13:41:13;;;;;;;0.40;0.22;;;21.90;81.50;;;;;;5112267;28;20537;-74
2021/05/08 13:43:39;;;;;;;0.40;0.20;;;;;;;;;;5112354;28;20380;-76
2021/05/08 13:46:05;;;;;;;0.40;0.20;;;21.80;78.00;;;;;;5111141;28;20392;-71
2021/05/08 13:48:30;;;;;;;0.40;0.20;;;21.20;81.20;;;;;;5111885;28;20379;-76
2021/05/08 13:50:56;;;;;;;0.40;0.20;;;21.30;74.70;;;;;;5111791;28;20385;-76
2021/05/08 13:53:22;;;;;;;0.40;0.20;;;21.10;71.40;;;;;;5111697;28;20385;-77
2021/05/08 13:55:48;;;;;;;0.40;0.20;;;;;;;;;;5110226;28;20369;-78
2021/05/08 13:58:13;;;;;;;0.40;0.20;;;20.70;83.60;;;;;;5111902;28;20770;-78
2021/05/08 14:00:40;;;;;;;0.40;0.20;;;;;;;;;;5111650;28;20486;-76
2021/05/08 14:03:06;;;;;;;0.40;0.20;;;;;;;;;;5094141;28;20390;-77
2021/05/08 14:05:32;;;;;;;0.40;0.30;;;20.50;79.70;;;;;;5091471;28;20449;-76